Mountain Iron, MN (55768)

5:54 PM CST on December 03, 2016 (GMT -0600)
Eveleth-Virginia Municipal | | Change Station

Elev 1378 ft 47.43 °N, 92.50 °W | Updated 20 minutes ago

Overcast
Overcast
28 °F
Feels Like 19 °F
N
9
Wind Variable Wind from South

Today
High -- | Low -- °F
--% Chance of Precip.
Yesterday
High -- | Low -- °F
Precip. -- in
Pressure 30.18 in
Visibility 10.0 miles
Clouds Overcast 2200 ft
Windchill 19 °F
Dew Point 19 °F
Humidity 71%
Rainfall 0.00 in
Snow Depth Not available.
7:40 AM 4:20 PM
Waxing Crescent, 18% visible
METAR KEVM 032334Z AUTO 18008KT 10SM OVC022 M02/M07 A3018 RMK AO2 T10251071
Pressure 30.18 in
Visibility 10.0 miles
Clouds Overcast 2200 ft
Windchill 19 °F
Dew Point 19 °F
Humidity 71%
Rainfall 0.00 in
Snow Depth Not available.
7:40 AM 4:20 PM
Waxing Crescent, 18% visible
METAR KEVM 032334Z AUTO 18008KT 10SM OVC022 M02/M07 A3018 RMK AO2 T10251071

10-Day Weather Forecast

Almanac

Astronomy

Dec. 03, 2016 Rise Set
Actual Time
Civil Twilight
Nautical Twilight
Astronomical Twilight
Moon
Length of Visible Light
Length of Day
Tomorrow will be .
, % of the Moon is Illuminated

Today's Extremes

State Highs State Lows

Community

WunderPhotos

Upload Photos

1,955,536 photos uploaded!

WunderBlog® & News

Nearby

Air Quality

  Air Quality AQ Index Pollutant
Not available.

Snow Depth

Station Depth Elevation

Earthquake Activity

City Distance Mag. Time & Date
Minimum magnitude displayed is 2.5.

Coastal Water Temperatures

Place Temperature

Stations

Nearby Weather Stations

Station Location Temp. Windchill Dew Point Humidity Wind Precip. Elev Updated Type
                   

Watches & Warnings

There are currently no watches in effect.